createdAt,value
2022-11-22T09:50:10.572Z,10.70
2022-11-22T09:52:51.254Z,10.70
2022-11-22T09:55:26.595Z,10.70
2022-11-22T09:58:19.106Z,10.70
2022-11-22T10:00:52.042Z,10.70
2022-11-22T10:03:28.422Z,10.60
2022-11-22T10:05:58.240Z,10.70
2022-11-22T10:08:24.977Z,10.70
2022-11-22T10:10:54.521Z,10.70
2022-11-22T10:13:43.349Z,10.70
2022-11-22T10:16:10.292Z,10.60
2022-11-22T10:18:58.499Z,10.70
2022-11-22T10:21:26.321Z,10.60
2022-11-22T10:23:53.589Z,10.60
2022-11-22T10:26:38.709Z,10.60
2022-11-22T10:29:45.066Z,10.60
2022-11-22T10:32:20.448Z,10.60
2022-11-22T10:35:00.083Z,10.60
2022-11-22T10:37:47.988Z,10.60
2022-11-22T10:40:37.613Z,10.50
2022-11-22T10:43:27.518Z,10.50
2022-11-22T10:46:09.279Z,10.40
2022-11-22T10:48:41.332Z,10.40
2022-11-22T10:51:17.105Z,10.40
2022-11-22T10:54:03.905Z,10.40
2022-11-22T10:56:54.085Z,10.40
2022-11-22T10:59:40.870Z,10.40
2022-11-22T11:02:31.338Z,10.40
2022-11-22T11:05:00.871Z,10.30
2022-11-22T11:07:28.106Z,10.40
2022-11-22T11:10:25.942Z,10.40
2022-11-22T11:13:01.795Z,10.40
2022-11-22T11:15:41.425Z,10.50
2022-11-22T11:18:27.109Z,10.40
2022-11-22T11:20:54.112Z,10.40
2022-11-22T11:23:21.019Z,10.50
2022-11-22T11:25:52.257Z,10.60
2022-11-22T11:28:25.352Z,10.60
2022-11-22T11:31:00.022Z,10.70
2022-11-22T11:33:31.917Z,10.80
2022-11-22T11:36:10.575Z,10.80
2022-11-22T11:38:50.515Z,10.70
2022-11-22T11:41:25.408Z,10.90
2022-11-22T11:43:54.674Z,11.00
2022-11-22T11:46:24.114Z,11.10
2022-11-22T11:48:52.897Z,11.20
2022-11-22T11:51:37.686Z,11.30
2022-11-22T11:54:44.088Z,11.30
2022-11-22T11:57:15.622Z,11.30
2022-11-22T11:59:46.692Z,11.10
2022-11-22T12:02:21.489Z,11.00
2022-11-22T12:04:56.088Z,11.20
2022-11-22T12:07:27.641Z,11.20
2022-11-22T12:09:55.980Z,11.00
2022-11-22T12:12:48.988Z,11.00
2022-11-22T12:15:19.637Z,11.00
2022-11-22T12:17:56.168Z,11.00
2022-11-22T12:20:29.201Z,11.00
2022-11-22T12:23:23.727Z,10.90
2022-11-22T12:25:54.902Z,10.90
2022-11-22T12:28:24.846Z,10.90
2022-11-22T12:30:57.083Z,10.80
2022-11-22T12:33:54.603Z,10.80
2022-11-22T12:36:32.517Z,10.70
2022-11-22T12:39:04.377Z,10.80
2022-11-22T12:41:33.628Z,10.70
2022-11-22T12:44:04.287Z,10.70
2022-11-22T12:46:39.900Z,10.70
2022-11-22T12:49:18.221Z,10.80
2022-11-22T12:51:52.098Z,10.70
2022-11-22T12:54:30.654Z,10.70
2022-11-22T12:57:02.622Z,10.70
2022-11-22T12:59:44.249Z,10.80
2022-11-22T13:02:14.131Z,10.70
2022-11-22T13:05:01.688Z,10.70
2022-11-22T13:07:44.200Z,10.70
2022-11-22T13:10:40.000Z,10.70
2022-11-22T13:13:17.480Z,10.80
2022-11-22T13:15:45.867Z,10.80
2022-11-22T13:18:16.766Z,10.70
2022-11-22T13:21:02.568Z,10.70
2022-11-22T13:23:35.177Z,10.70
2022-11-22T13:26:18.686Z,10.70
2022-11-22T13:28:46.677Z,10.80
2022-11-22T18:37:03.164Z,10.50
2022-11-22T18:39:33.692Z,10.50
2022-11-22T18:42:01.045Z,10.50
2022-11-22T18:44:27.933Z,10.60
2022-11-22T18:46:54.807Z,10.50
2022-11-22T18:49:21.718Z,10.40
2022-11-22T18:51:48.694Z,10.50
2022-11-22T18:54:16.052Z,10.40
2022-11-22T18:56:42.955Z,10.40
2022-11-22T18:59:12.787Z,10.50
2022-11-22T19:01:40.651Z,10.50
2022-11-22T19:04:09.278Z,10.50
2022-11-22T19:06:36.126Z,10.50
2022-11-22T19:09:06.962Z,10.60
2022-11-22T19:11:34.027Z,10.60
2022-11-22T19:14:01.221Z,10.50
2022-11-22T19:16:30.222Z,10.50
2022-11-22T19:18:58.649Z,10.50
2022-11-22T19:21:28.372Z,10.40
2022-11-22T19:23:56.214Z,10.40
2022-11-22T19:26:25.228Z,10.50
2022-11-22T19:28:55.966Z,10.40
2022-11-22T19:31:25.950Z,10.50
2022-11-22T19:33:53.011Z,10.50
2022-11-22T19:36:25.334Z,10.50
2022-11-22T19:38:57.846Z,10.40
2022-11-22T19:41:25.088Z,10.40
2022-11-22T19:43:52.438Z,10.40
2022-11-22T19:46:20.047Z,10.40
2022-11-22T19:48:54.340Z,10.40
2022-11-22T19:51:22.227Z,10.50
2022-11-22T19:53:49.358Z,10.40
2022-11-22T19:56:18.030Z,10.40
2022-11-22T19:58:50.426Z,10.40
2022-11-22T20:01:17.754Z,10.40
2022-11-22T20:03:45.477Z,10.40
2022-11-22T20:06:14.095Z,10.40
2022-11-22T20:08:41.587Z,10.30
2022-11-22T20:11:09.885Z,10.30
2022-11-22T20:13:39.132Z,10.30
2022-11-22T20:16:07.454Z,10.30
2022-11-22T20:18:34.662Z,10.40
2022-11-22T20:21:03.128Z,10.40
2022-11-22T20:23:31.019Z,10.40
2022-11-22T20:26:09.970Z,10.30
2022-11-22T20:28:38.127Z,10.20
2022-11-22T20:31:12.335Z,10.20
2022-11-22T20:33:42.927Z,10.20
2022-11-22T20:36:15.312Z,10.20
2022-11-22T20:38:43.510Z,10.30
2022-11-22T20:41:12.245Z,10.40
2022-11-22T20:43:39.615Z,10.40
2022-11-22T20:46:09.231Z,10.40
2022-11-22T20:48:37.954Z,10.40
2022-11-22T20:51:10.750Z,10.40
2022-11-22T20:53:37.875Z,10.40
2022-11-22T20:56:05.202Z,10.40
2022-11-22T20:58:32.267Z,10.40
2022-11-22T21:00:59.425Z,10.40
2022-11-22T21:03:27.663Z,10.40
2022-11-22T21:05:55.511Z,10.40
2022-11-22T21:08:22.896Z,10.40
2022-11-22T21:10:50.054Z,10.40
2022-11-22T21:13:17.125Z,10.40
2022-11-22T21:15:44.348Z,10.40
2022-11-22T21:18:27.353Z,10.40
2022-11-22T21:20:54.221Z,10.40
2022-11-22T21:23:21.051Z,10.40
2022-11-22T21:25:50.447Z,10.40
2022-11-22T21:28:17.396Z,10.50
2022-11-22T21:30:44.166Z,10.50
2022-11-22T21:33:11.041Z,10.40
2022-11-22T21:35:37.811Z,10.50
2022-11-22T21:38:04.638Z,10.50
2022-11-22T21:40:31.474Z,10.40
2022-11-22T21:42:58.541Z,10.50
2022-11-22T21:45:25.286Z,10.40
2022-11-22T21:47:52.071Z,10.40
2022-11-22T21:50:19.024Z,10.40
2022-11-22T21:52:45.789Z,10.40
2022-11-22T21:55:13.092Z,10.40
2022-11-22T21:57:39.945Z,10.40
2022-11-22T22:00:07.905Z,10.40
2022-11-22T22:02:35.758Z,10.40
2022-11-22T22:05:02.697Z,10.40
2022-11-22T22:07:51.301Z,10.40
2022-11-22T22:10:16.805Z,10.30
2022-11-22T22:12:43.625Z,10.20
2022-11-22T22:15:14.590Z,10.30
2022-11-22T22:17:41.471Z,10.30
2022-11-22T22:20:08.677Z,10.40
2022-11-22T22:22:36.946Z,10.40
